sensor_id;sensor_type;location;lat;lon;timestamp;P1;durP1;ratioP1;P2;durP2;ratioP2
2205;SDS011;1109;48.020;11.478;2022-07-06T00:00:59;2.40;;;2.20;;
2205;SDS011;1109;48.020;11.478;2022-07-06T00:03:26;3.70;;;2.37;;
2205;SDS011;1109;48.020;11.478;2022-07-06T00:05:53;2.67;;;2.30;;
2205;SDS011;1109;48.020;11.478;2022-07-06T00:08:20;2.50;;;2.30;;
2205;SDS011;1109;48.020;11.478;2022-07-06T00:10:47;2.57;;;2.37;;
2205;SDS011;1109;48.020;11.478;2022-07-06T00:13:14;2.30;;;2.20;;
2205;SDS011;1109;48.020;11.478;2022-07-06T00:15:41;2.80;;;2.60;;
2205;SDS011;1109;48.020;11.478;2022-07-06T00:18:07;2.77;;;2.60;;
2205;SDS011;1109;48.020;11.478;2022-07-06T00:20:34;2.40;;;2.30;;
2205;SDS011;1109;48.020;11.478;2022-07-06T00:23:01;2.90;;;2.70;;
2205;SDS011;1109;48.020;11.478;2022-07-06T00:25:28;6.90;;;2.73;;
2205;SDS011;1109;48.020;11.478;2022-07-06T00:27:55;2.50;;;2.40;;
2205;SDS011;1109;48.020;11.478;2022-07-06T00:30:22;2.70;;;2.50;;
2205;SDS011;1109;48.020;11.478;2022-07-06T00:32:49;5.30;;;2.83;;
2205;SDS011;1109;48.020;11.478;2022-07-06T00:35:16;6.43;;;3.37;;
2205;SDS011;1109;48.020;11.478;2022-07-06T00:37:42;3.20;;;2.90;;
2205;SDS011;1109;48.020;11.478;2022-07-06T00:40:09;2.60;;;2.40;;
2205;SDS011;1109;48.020;11.478;2022-07-06T00:42:44;4.40;;;2.80;;
2205;SDS011;1109;48.020;11.478;2022-07-06T00:45:13;2.60;;;2.40;;
2205;SDS011;1109;48.020;11.478;2022-07-06T00:47:41;3.70;;;2.63;;
2205;SDS011;1109;48.020;11.478;2022-07-06T00:50:09;3.37;;;2.67;;
2205;SDS011;1109;48.020;11.478;2022-07-06T00:52:48;6.20;;;2.47;;
2205;SDS011;1109;48.020;11.478;2022-07-06T00:55:16;2.60;;;2.40;;
2205;SDS011;1109;48.020;11.478;2022-07-06T00:57:48;7.03;;;2.17;;
2205;SDS011;1109;48.020;11.478;2022-07-06T01:00:17;2.90;;;2.70;;
2205;SDS011;1109;48.020;11.478;2022-07-06T01:02:45;2.70;;;2.50;;
2205;SDS011;1109;48.020;11.478;2022-07-06T01:05:14;2.67;;;2.53;;
2205;SDS011;1109;48.020;11.478;2022-07-06T01:07:42;2.47;;;2.13;;
2205;SDS011;1109;48.020;11.478;2022-07-06T01:10:12;2.80;;;2.60;;
2205;SDS011;1109;48.020;11.478;2022-07-06T01:12:42;3.50;;;2.50;;
2205;SDS011;1109;48.020;11.478;2022-07-06T01:15:12;2.40;;;2.30;;
2205;SDS011;1109;48.020;11.478;2022-07-06T01:17:40;2.70;;;2.50;;
2205;SDS011;1109;48.020;11.478;2022-07-06T01:22:37;3.40;;;2.70;;
2205;SDS011;1109;48.020;11.478;2022-07-06T01:25:04;2.40;;;2.20;;
2205;SDS011;1109;48.020;11.478;2022-07-06T01:27:34;3.20;;;2.90;;
2205;SDS011;1109;48.020;11.478;2022-07-06T01:30:04;3.20;;;2.90;;
2205;SDS011;1109;48.020;11.478;2022-07-06T01:32:33;2.73;;;2.53;;
2205;SDS011;1109;48.020;11.478;2022-07-06T01:35:00;3.30;;;2.90;;
2205;SDS011;1109;48.020;11.478;2022-07-06T01:37:28;3.07;;;2.87;;
2205;SDS011;1109;48.020;11.478;2022-07-06T01:40:02;2.97;;;2.67;;
2205;SDS011;1109;48.020;11.478;2022-07-06T01:42:30;3.17;;;2.97;;
2205;SDS011;1109;48.020;11.478;2022-07-06T01:44:57;3.20;;;3.00;;
2205;SDS011;1109;48.020;11.478;2022-07-06T01:47:24;3.00;;;2.80;;
2205;SDS011;1109;48.020;11.478;2022-07-06T01:49:51;3.20;;;3.00;;
2205;SDS011;1109;48.020;11.478;2022-07-06T01:52:18;2.10;;;2.00;;
2205;SDS011;1109;48.020;11.478;2022-07-06T01:54:45;2.70;;;2.50;;
2205;SDS011;1109;48.020;11.478;2022-07-06T01:57:12;3.03;;;2.57;;
2205;SDS011;1109;48.020;11.478;2022-07-06T01:59:39;3.53;;;2.40;;
2205;SDS011;1109;48.020;11.478;2022-07-06T02:02:06;3.17;;;2.97;;
2205;SDS011;1109;48.020;11.478;2022-07-06T02:04:33;3.07;;;2.77;;
2205;SDS011;1109;48.020;11.478;2022-07-06T02:07:00;2.97;;;2.77;;
2205;SDS011;1109;48.020;11.478;2022-07-06T02:09:27;4.57;;;2.63;;
2205;SDS011;1109;48.020;11.478;2022-07-06T02:11:54;3.07;;;2.87;;
2205;SDS011;1109;48.020;11.478;2022-07-06T02:14:22;2.67;;;2.47;;
2205;SDS011;1109;48.020;11.478;2022-07-06T02:16:49;6.83;;;2.53;;
2205;SDS011;1109;48.020;11.478;2022-07-06T02:19:16;3.60;;;2.80;;
2205;SDS011;1109;48.020;11.478;2022-07-06T02:21:43;2.63;;;2.43;;
2205;SDS011;1109;48.020;11.478;2022-07-06T02:24:10;3.10;;;2.80;;
2205;SDS011;1109;48.020;11.478;2022-07-06T02:26:37;3.80;;;2.87;;
2205;SDS011;1109;48.020;11.478;2022-07-06T02:29:03;3.10;;;2.90;;
2205;SDS011;1109;48.020;11.478;2022-07-06T02:31:30;3.13;;;2.93;;
2205;SDS011;1109;48.020;11.478;2022-07-06T02:33:57;3.03;;;2.83;;
2205;SDS011;1109;48.020;11.478;2022-07-06T02:36:24;3.57;;;3.23;;
2205;SDS011;1109;48.020;11.478;2022-07-06T02:38:51;3.40;;;3.10;;
2205;SDS011;1109;48.020;11.478;2022-07-06T02:41:17;4.10;;;2.83;;
2205;SDS011;1109;48.020;11.478;2022-07-06T02:43:44;3.10;;;2.90;;
2205;SDS011;1109;48.020;11.478;2022-07-06T02:46:11;3.43;;;3.13;;
2205;SDS011;1109;48.020;11.478;2022-07-06T02:48:38;3.00;;;2.80;;
2205;SDS011;1109;48.020;11.478;2022-07-06T02:51:06;3.70;;;3.40;;
2205;SDS011;1109;48.020;11.478;2022-07-06T02:53:33;3.67;;;3.27;;
2205;SDS011;1109;48.020;11.478;2022-07-06T02:55:59;3.00;;;2.80;;
2205;SDS011;1109;48.020;11.478;2022-07-06T02:58:27;3.90;;;3.60;;
2205;SDS011;1109;48.020;11.478;2022-07-06T03:00:53;3.60;;;3.30;;
2205;SDS011;1109;48.020;11.478;2022-07-06T03:03:20;3.60;;;3.33;;
2205;SDS011;1109;48.020;11.478;2022-07-06T03:05:47;3.03;;;2.83;;
2205;SDS011;1109;48.020;11.478;2022-07-06T03:08:14;4.13;;;3.73;;
2205;SDS011;1109;48.020;11.478;2022-07-06T03:10:42;3.40;;;3.10;;
2205;SDS011;1109;48.020;11.478;2022-07-06T03:13:09;3.43;;;3.13;;
2205;SDS011;1109;48.020;11.478;2022-07-06T03:15:36;3.57;;;3.37;;
2205;SDS011;1109;48.020;11.478;2022-07-06T03:18:02;4.33;;;3.83;;
2205;SDS011;1109;48.020;11.478;2022-07-06T03:20:29;4.00;;;3.70;;
2205;SDS011;1109;48.020;11.478;2022-07-06T03:22:57;3.20;;;3.00;;
2205;SDS011;1109;48.020;11.478;2022-07-06T03:25:25;3.53;;;3.33;;
2205;SDS011;1109;48.020;11.478;2022-07-06T03:27:52;3.73;;;3.40;;
2205;SDS011;1109;48.020;11.478;2022-07-06T03:30:19;3.43;;;3.23;;
2205;SDS011;1109;48.020;11.478;2022-07-06T03:32:46;3.83;;;3.50;;
2205;SDS011;1109;48.020;11.478;2022-07-06T03:35:13;3.77;;;3.27;;
2205;SDS011;1109;48.020;11.478;2022-07-06T03:37:40;3.67;;;3.37;;
2205;SDS011;1109;48.020;11.478;2022-07-06T03:40:07;4.30;;;2.77;;
2205;SDS011;1109;48.020;11.478;2022-07-06T03:42:35;3.67;;;3.37;;
2205;SDS011;1109;48.020;11.478;2022-07-06T03:45:02;3.43;;;3.23;;
2205;SDS011;1109;48.020;11.478;2022-07-06T03:47:32;3.73;;;3.53;;
2205;SDS011;1109;48.020;11.478;2022-07-06T03:49:59;3.20;;;2.90;;
2205;SDS011;1109;48.020;11.478;2022-07-06T03:52:27;3.70;;;3.50;;
2205;SDS011;1109;48.020;11.478;2022-07-06T03:54:54;3.93;;;3.63;;
2205;SDS011;1109;48.020;11.478;2022-07-06T03:57:22;3.87;;;3.47;;
2205;SDS011;1109;48.020;11.478;2022-07-06T03:59:49;3.57;;;3.27;;
2205;SDS011;1109;48.020;11.478;2022-07-06T04:02:17;3.90;;;3.40;;
2205;SDS011;1109;48.020;11.478;2022-07-06T04:04:44;3.47;;;3.20;;
2205;SDS011;1109;48.020;11.478;2022-07-06T04:07:11;6.93;;;3.10;;
2205;SDS011;1109;48.020;11.478;2022-07-06T04:09:39;3.10;;;2.90;;
2205;SDS011;1109;48.020;11.478;2022-07-06T04:12:06;3.33;;;3.13;;
2205;SDS011;1109;48.020;11.478;2022-07-06T04:14:33;3.33;;;3.13;;
2205;SDS011;1109;48.020;11.478;2022-07-06T04:17:01;3.67;;;3.47;;
2205;SDS011;1109;48.020;11.478;2022-07-06T04:19:47;3.10;;;2.90;;
2205;SDS011;1109;48.020;11.478;2022-07-06T04:22:14;3.00;;;2.80;;
2205;SDS011;1109;48.020;11.478;2022-07-06T04:24:40;3.03;;;2.77;;
2205;SDS011;1109;48.020;11.478;2022-07-06T04:27:08;2.93;;;2.73;;
2205;SDS011;1109;48.020;11.478;2022-07-06T04:29:35;2.90;;;2.60;;
2205;SDS011;1109;48.020;11.478;2022-07-06T04:32:02;3.30;;;3.00;;
2205;SDS011;1109;48.020;11.478;2022-07-06T04:34:29;2.60;;;2.50;;
2205;SDS011;1109;48.020;11.478;2022-07-06T04:36:56;3.47;;;2.70;;
2205;SDS011;1109;48.020;11.478;2022-07-06T04:39:23;2.90;;;2.70;;
2205;SDS011;1109;48.020;11.478;2022-07-06T04:41:50;2.60;;;2.40;;
2205;SDS011;1109;48.020;11.478;2022-07-06T04:44:17;2.70;;;2.50;;
2205;SDS011;1109;48.020;11.478;2022-07-06T04:46:44;2.83;;;2.63;;
2205;SDS011;1109;48.020;11.478;2022-07-06T04:49:10;3.10;;;2.90;;
2205;SDS011;1109;48.020;11.478;2022-07-06T04:51:37;2.63;;;2.43;;
2205;SDS011;1109;48.020;11.478;2022-07-06T04:54:04;3.20;;;2.90;;
2205;SDS011;1109;48.020;11.478;2022-07-06T04:56:31;2.90;;;2.70;;
2205;SDS011;1109;48.020;11.478;2022-07-06T04:58:58;2.83;;;2.63;;
2205;SDS011;1109;48.020;11.478;2022-07-06T05:01:25;3.47;;;3.17;;
2205;SDS011;1109;48.020;11.478;2022-07-06T05:03:52;5.53;;;3.40;;
2205;SDS011;1109;48.020;11.478;2022-07-06T05:06:19;2.67;;;2.47;;
2205;SDS011;1109;48.020;11.478;2022-07-06T05:08:46;2.77;;;2.57;;
2205;SDS011;1109;48.020;11.478;2022-07-06T05:11:13;2.70;;;2.50;;
2205;SDS011;1109;48.020;11.478;2022-07-06T05:13:40;2.67;;;2.50;;
2205;SDS011;1109;48.020;11.478;2022-07-06T05:16:07;2.60;;;2.30;;
2205;SDS011;1109;48.020;11.478;2022-07-06T05:18:34;2.97;;;2.77;;
2205;SDS011;1109;48.020;11.478;2022-07-06T05:21:01;3.40;;;2.97;;
2205;SDS011;1109;48.020;11.478;2022-07-06T05:23:28;6.20;;;2.80;;
2205;SDS011;1109;48.020;11.478;2022-07-06T05:25:55;5.53;;;2.40;;
2205;SDS011;1109;48.020;11.478;2022-07-06T05:28:22;3.77;;;2.83;;
2205;SDS011;1109;48.020;11.478;2022-07-06T05:30:50;2.43;;;2.30;;
2205;SDS011;1109;48.020;11.478;2022-07-06T05:33:17;2.70;;;2.50;;
2205;SDS011;1109;48.020;11.478;2022-07-06T05:35:44;2.63;;;2.43;;
2205;SDS011;1109;48.020;11.478;2022-07-06T05:38:17;2.40;;;2.30;;
2205;SDS011;1109;48.020;11.478;2022-07-06T05:40:45;2.37;;;2.27;;
2205;SDS011;1109;48.020;11.478;2022-07-06T05:43:12;4.03;;;2.03;;
2205;SDS011;1109;48.020;11.478;2022-07-06T05:45:39;2.77;;;2.00;;
2205;SDS011;1109;48.020;11.478;2022-07-06T05:48:06;2.07;;;1.97;;
2205;SDS011;1109;48.020;11.478;2022-07-06T05:50:53;2.60;;;2.40;;
2205;SDS011;1109;48.020;11.478;2022-07-06T05:53:20;2.13;;;2.00;;
2205;SDS011;1109;48.020;11.478;2022-07-06T05:55:47;2.03;;;1.93;;
2205;SDS011;1109;48.020;11.478;2022-07-06T05:58:14;2.47;;;2.27;;
2205;SDS011;1109;48.020;11.478;2022-07-06T06:00:41;3.00;;;2.80;;
2205;SDS011;1109;48.020;11.478;2022-07-06T06:03:08;2.70;;;2.50;;
2205;SDS011;1109;48.020;11.478;2022-07-06T06:05:35;3.10;;;2.60;;
2205;SDS011;1109;48.020;11.478;2022-07-06T06:08:02;2.20;;;2.10;;
2205;SDS011;1109;48.020;11.478;2022-07-06T06:10:29;3.80;;;2.40;;
2205;SDS011;1109;48.020;11.478;2022-07-06T06:12:56;2.47;;;2.27;;
2205;SDS011;1109;48.020;11.478;2022-07-06T06:15:23;3.20;;;1.80;;
2205;SDS011;1109;48.020;11.478;2022-07-06T06:17:50;2.50;;;2.33;;
2205;SDS011;1109;48.020;11.478;2022-07-06T06:20:17;2.40;;;2.20;;
2205;SDS011;1109;48.020;11.478;2022-07-06T06:22:47;6.53;;;2.13;;
2205;SDS011;1109;48.020;11.478;2022-07-06T06:25:16;2.30;;;2.20;;
2205;SDS011;1109;48.020;11.478;2022-07-06T06:27:44;2.47;;;2.30;;
2205;SDS011;1109;48.020;11.478;2022-07-06T06:30:12;2.17;;;2.07;;
2205;SDS011;1109;48.020;11.478;2022-07-06T06:32:39;2.33;;;2.23;;
2205;SDS011;1109;48.020;11.478;2022-07-06T06:35:06;4.50;;;2.43;;
2205;SDS011;1109;48.020;11.478;2022-07-06T06:37:34;3.33;;;2.27;;
2205;SDS011;1109;48.020;11.478;2022-07-06T06:40:02;2.97;;;1.97;;
2205;SDS011;1109;48.020;11.478;2022-07-06T06:42:30;4.80;;;2.27;;
2205;SDS011;1109;48.020;11.478;2022-07-06T06:44:57;2.63;;;2.17;;
2205;SDS011;1109;48.020;11.478;2022-07-06T06:47:25;2.80;;;2.30;;
2205;SDS011;1109;48.020;11.478;2022-07-06T06:49:52;4.60;;;2.07;;
2205;SDS011;1109;48.020;11.478;2022-07-06T06:52:18;2.10;;;2.00;;
2205;SDS011;1109;48.020;11.478;2022-07-06T06:55:05;3.23;;;2.20;;
2205;SDS011;1109;48.020;11.478;2022-07-06T06:57:33;2.70;;;2.50;;
2205;SDS011;1109;48.020;11.478;2022-07-06T07:00:00;2.40;;;2.20;;
2205;SDS011;1109;48.020;11.478;2022-07-06T07:02:27;4.00;;;2.90;;
2205;SDS011;1109;48.020;11.478;2022-07-06T07:04:55;2.80;;;2.50;;
2205;SDS011;1109;48.020;11.478;2022-07-06T07:07:22;2.70;;;2.50;;
2205;SDS011;1109;48.020;11.478;2022-07-06T07:09:49;3.10;;;2.50;;
2205;SDS011;1109;48.020;11.478;2022-07-06T07:12:15;3.60;;;2.63;;
2205;SDS011;1109;48.020;11.478;2022-07-06T07:14:43;2.37;;;2.17;;
2205;SDS011;1109;48.020;11.478;2022-07-06T07:17:10;2.17;;;2.00;;
2205;SDS011;1109;48.020;11.478;2022-07-06T07:19:38;3.00;;;2.80;;
2205;SDS011;1109;48.020;11.478;2022-07-06T07:22:06;3.10;;;2.00;;
2205;SDS011;1109;48.020;11.478;2022-07-06T07:24:34;3.00;;;2.70;;
2205;SDS011;1109;48.020;11.478;2022-07-06T07:27:01;3.20;;;3.00;;
2205;SDS011;1109;48.020;11.478;2022-07-06T07:29:28;3.70;;;2.20;;
2205;SDS011;1109;48.020;11.478;2022-07-06T07:31:55;3.20;;;2.90;;
2205;SDS011;1109;48.020;11.478;2022-07-06T07:34:22;2.70;;;2.20;;
2205;SDS011;1109;48.020;11.478;2022-07-06T07:36:49;2.30;;;2.20;;
2205;SDS011;1109;48.020;11.478;2022-07-06T07:39:16;2.53;;;2.43;;
2205;SDS011;1109;48.020;11.478;2022-07-06T07:41:43;2.50;;;2.30;;
2205;SDS011;1109;48.020;11.478;2022-07-06T07:44:10;4.27;;;2.50;;
2205;SDS011;1109;48.020;11.478;2022-07-06T07:46:37;2.60;;;2.40;;
2205;SDS011;1109;48.020;11.478;2022-07-06T07:49:04;2.50;;;2.30;;
2205;SDS011;1109;48.020;11.478;2022-07-06T07:51:31;3.60;;;2.07;;
2205;SDS011;1109;48.020;11.478;2022-07-06T07:53:58;2.37;;;2.17;;
2205;SDS011;1109;48.020;11.478;2022-07-06T07:56:25;3.03;;;2.50;;
2205;SDS011;1109;48.020;11.478;2022-07-06T07:58:53;2.70;;;2.50;;
2205;SDS011;1109;48.020;11.478;2022-07-06T08:01:20;3.37;;;2.20;;
2205;SDS011;1109;48.020;11.478;2022-07-06T08:03:48;4.33;;;2.37;;
2205;SDS011;1109;48.020;11.478;2022-07-06T08:06:15;5.70;;;2.73;;
2205;SDS011;1109;48.020;11.478;2022-07-06T08:08:42;3.60;;;2.10;;
2205;SDS011;1109;48.020;11.478;2022-07-06T08:11:09;3.97;;;2.30;;
2205;SDS011;1109;48.020;11.478;2022-07-06T08:13:45;2.57;;;2.40;;
2205;SDS011;1109;48.020;11.478;2022-07-06T08:16:12;4.33;;;2.70;;
2205;SDS011;1109;48.020;11.478;2022-07-06T08:18:39;2.30;;;2.13;;
2205;SDS011;1109;48.020;11.478;2022-07-06T08:21:06;2.70;;;2.30;;
2205;SDS011;1109;48.020;11.478;2022-07-06T08:23:51;2.70;;;2.50;;
2205;SDS011;1109;48.020;11.478;2022-07-06T08:26:20;4.60;;;2.70;;
2205;SDS011;1109;48.020;11.478;2022-07-06T08:28:47;3.50;;;2.30;;
2205;SDS011;1109;48.020;11.478;2022-07-06T08:31:14;3.17;;;2.57;;
2205;SDS011;1109;48.020;11.478;2022-07-06T08:34:01;3.53;;;2.00;;
2205;SDS011;1109;48.020;11.478;2022-07-06T08:36:28;2.80;;;2.60;;
2205;SDS011;1109;48.020;11.478;2022-07-06T08:38:56;2.80;;;2.30;;
2205;SDS011;1109;48.020;11.478;2022-07-06T08:41:24;3.13;;;2.93;;
2205;SDS011;1109;48.020;11.478;2022-07-06T08:43:52;3.10;;;2.27;;
2205;SDS011;1109;48.020;11.478;2022-07-06T08:46:20;3.23;;;2.50;;
2205;SDS011;1109;48.020;11.478;2022-07-06T08:48:48;4.20;;;2.67;;
2205;SDS011;1109;48.020;11.478;2022-07-06T08:51:16;5.90;;;2.70;;
2205;SDS011;1109;48.020;11.478;2022-07-06T08:53:44;2.60;;;2.50;;
2205;SDS011;1109;48.020;11.478;2022-07-06T08:56:15;3.07;;;2.87;;
2205;SDS011;1109;48.020;11.478;2022-07-06T08:58:42;7.23;;;3.00;;
2205;SDS011;1109;48.020;11.478;2022-07-06T09:01:10;3.23;;;2.40;;
2205;SDS011;1109;48.020;11.478;2022-07-06T09:03:41;2.93;;;2.60;;
2205;SDS011;1109;48.020;11.478;2022-07-06T09:06:09;2.83;;;2.67;;
2205;SDS011;1109;48.020;11.478;2022-07-06T09:08:37;4.13;;;2.70;;
2205;SDS011;1109;48.020;11.478;2022-07-06T09:11:04;3.70;;;2.30;;
2205;SDS011;1109;48.020;11.478;2022-07-06T09:13:31;2.87;;;2.67;;
2205;SDS011;1109;48.020;11.478;2022-07-06T09:16:24;4.57;;;2.40;;
2205;SDS011;1109;48.020;11.478;2022-07-06T09:19:04;3.40;;;3.10;;
2205;SDS011;1109;48.020;11.478;2022-07-06T09:21:32;2.57;;;2.37;;
2205;SDS011;1109;48.020;11.478;2022-07-06T09:24:05;6.77;;;2.30;;
2205;SDS011;1109;48.020;11.478;2022-07-06T09:26:34;3.93;;;3.10;;
2205;SDS011;1109;48.020;11.478;2022-07-06T09:29:01;2.90;;;2.60;;
2205;SDS011;1109;48.020;11.478;2022-07-06T09:31:28;3.37;;;2.40;;
2205;SDS011;1109;48.020;11.478;2022-07-06T09:33:56;4.77;;;3.30;;
2205;SDS011;1109;48.020;11.478;2022-07-06T09:37:07;4.80;;;2.80;;
2205;SDS011;1109;48.020;11.478;2022-07-06T09:41:45;2.77;;;2.57;;
2205;SDS011;1109;48.020;11.478;2022-07-06T09:46:57;3.23;;;2.90;;
2205;SDS011;1109;48.020;11.478;2022-07-06T09:49:25;3.43;;;3.23;;
2205;SDS011;1109;48.020;11.478;2022-07-06T09:51:54;2.67;;;2.50;;
2205;SDS011;1109;48.020;11.478;2022-07-06T09:54:23;2.93;;;2.63;;
2205;SDS011;1109;48.020;11.478;2022-07-06T09:56:50;3.00;;;2.80;;
2205;SDS011;1109;48.020;11.478;2022-07-06T09:59:19;3.37;;;2.93;;
2205;SDS011;1109;48.020;11.478;2022-07-06T10:01:50;4.60;;;4.30;;
2205;SDS011;1109;48.020;11.478;2022-07-06T10:04:19;2.80;;;2.60;;
2205;SDS011;1109;48.020;11.478;2022-07-06T10:06:48;3.73;;;3.40;;
2205;SDS011;1109;48.020;11.478;2022-07-06T10:09:16;3.60;;;2.60;;
2205;SDS011;1109;48.020;11.478;2022-07-06T10:11:52;6.83;;;3.23;;
2205;SDS011;1109;48.020;11.478;2022-07-06T10:14:31;5.33;;;2.97;;
2205;SDS011;1109;48.020;11.478;2022-07-06T10:17:00;2.50;;;2.40;;
2205;SDS011;1109;48.020;11.478;2022-07-06T10:19:30;2.60;;;2.40;;
2205;SDS011;1109;48.020;11.478;2022-07-06T10:21:59;3.60;;;2.90;;
2205;SDS011;1109;48.020;11.478;2022-07-06T10:24:28;3.00;;;2.80;;
2205;SDS011;1109;48.020;11.478;2022-07-06T10:26:56;3.10;;;2.60;;
2205;SDS011;1109;48.020;11.478;2022-07-06T10:29:23;3.73;;;2.90;;
2205;SDS011;1109;48.020;11.478;2022-07-06T10:31:51;8.63;;;2.83;;
2205;SDS011;1109;48.020;11.478;2022-07-06T10:34:21;3.57;;;2.67;;
2205;SDS011;1109;48.020;11.478;2022-07-06T10:36:53;5.47;;;2.57;;
2205;SDS011;1109;48.020;11.478;2022-07-06T10:39:33;2.40;;;2.30;;
2205;SDS011;1109;48.020;11.478;2022-07-06T10:48:17;2.73;;;2.53;;
2205;SDS011;1109;48.020;11.478;2022-07-06T10:50:48;3.47;;;3.10;;
2205;SDS011;1109;48.020;11.478;2022-07-06T10:55:52;2.43;;;2.30;;
2205;SDS011;1109;48.020;11.478;2022-07-06T10:58:34;2.70;;;2.50;;
2205;SDS011;1109;48.020;11.478;2022-07-06T11:01:09;3.87;;;2.83;;
2205;SDS011;1109;48.020;11.478;2022-07-06T11:06:11;3.03;;;2.63;;
2205;SDS011;1109;48.020;11.478;2022-07-06T11:11:13;10.70;;;3.40;;
2205;SDS011;1109;48.020;11.478;2022-07-06T11:13:47;3.97;;;3.30;;
2205;SDS011;1109;48.020;11.478;2022-07-06T11:16:19;3.67;;;2.63;;
2205;SDS011;1109;48.020;11.478;2022-07-06T11:18:48;3.77;;;3.47;;
2205;SDS011;1109;48.020;11.478;2022-07-06T11:21:20;3.43;;;2.93;;
2205;SDS011;1109;48.020;11.478;2022-07-06T11:23:49;3.43;;;3.13;;
2205;SDS011;1109;48.020;11.478;2022-07-06T11:26:17;2.47;;;2.37;;
2205;SDS011;1109;48.020;11.478;2022-07-06T11:28:46;3.07;;;2.87;;
2205;SDS011;1109;48.020;11.478;2022-07-06T11:31:14;3.40;;;3.20;;
2205;SDS011;1109;48.020;11.478;2022-07-06T11:33:44;3.47;;;3.00;;
2205;SDS011;1109;48.020;11.478;2022-07-06T11:38:44;2.63;;;2.43;;
2205;SDS011;1109;48.020;11.478;2022-07-06T11:41:12;2.90;;;2.70;;
2205;SDS011;1109;48.020;11.478;2022-07-06T11:43:41;2.77;;;2.53;;
2205;SDS011;1109;48.020;11.478;2022-07-06T11:46:18;3.27;;;2.13;;
2205;SDS011;1109;48.020;11.478;2022-07-06T11:48:56;2.57;;;2.30;;
2205;SDS011;1109;48.020;11.478;2022-07-06T11:51:29;2.20;;;2.10;;
2205;SDS011;1109;48.020;11.478;2022-07-06T11:53:59;2.53;;;2.30;;
2205;SDS011;1109;48.020;11.478;2022-07-06T11:56:28;2.60;;;2.40;;
2205;SDS011;1109;48.020;11.478;2022-07-06T11:58:57;4.27;;;2.50;;
2205;SDS011;1109;48.020;11.478;2022-07-06T12:01:29;3.63;;;2.30;;
2205;SDS011;1109;48.020;11.478;2022-07-06T12:03:58;2.93;;;2.73;;
2205;SDS011;1109;48.020;11.478;2022-07-06T12:06:26;3.10;;;2.90;;
2205;SDS011;1109;48.020;11.478;2022-07-06T12:08:56;2.93;;;2.67;;
2205;SDS011;1109;48.020;11.478;2022-07-06T12:11:25;3.50;;;2.50;;
2205;SDS011;1109;48.020;11.478;2022-07-06T12:13:54;2.33;;;2.23;;
2205;SDS011;1109;48.020;11.478;2022-07-06T12:16:28;4.23;;;2.43;;
2205;SDS011;1109;48.020;11.478;2022-07-06T12:19:01;2.73;;;2.53;;
2205;SDS011;1109;48.020;11.478;2022-07-06T12:21:33;3.63;;;2.40;;
2205;SDS011;1109;48.020;11.478;2022-07-06T12:24:05;4.13;;;2.40;;
2205;SDS011;1109;48.020;11.478;2022-07-06T12:26:43;2.50;;;2.30;;
2205;SDS011;1109;48.020;11.478;2022-07-06T12:29:11;2.50;;;2.30;;
2205;SDS011;1109;48.020;11.478;2022-07-06T12:31:48;2.63;;;2.43;;
2205;SDS011;1109;48.020;11.478;2022-07-06T12:36:50;3.90;;;2.20;;
2205;SDS011;1109;48.020;11.478;2022-07-06T12:39:23;1.87;;;1.77;;
2205;SDS011;1109;48.020;11.478;2022-07-06T12:41:55;4.60;;;2.20;;
2205;SDS011;1109;48.020;11.478;2022-07-06T12:44:27;2.40;;;2.20;;
2205;SDS011;1109;48.020;11.478;2022-07-06T12:47:03;2.30;;;2.13;;
2205;SDS011;1109;48.020;11.478;2022-07-06T12:49:32;2.43;;;2.00;;
2205;SDS011;1109;48.020;11.478;2022-07-06T12:52:02;2.20;;;2.00;;
2205;SDS011;1109;48.020;11.478;2022-07-06T12:54:42;6.33;;;2.57;;
2205;SDS011;1109;48.020;11.478;2022-07-06T12:57:13;2.13;;;1.90;;
2205;SDS011;1109;48.020;11.478;2022-07-06T12:59:56;2.40;;;2.20;;
2205;SDS011;1109;48.020;11.478;2022-07-06T13:02:24;2.87;;;2.60;;
2205;SDS011;1109;48.020;11.478;2022-07-06T13:05:12;1.90;;;1.80;;
2205;SDS011;1109;48.020;11.478;2022-07-06T13:07:45;1.83;;;1.70;;
2205;SDS011;1109;48.020;11.478;2022-07-06T13:10:13;2.40;;;2.20;;
2205;SDS011;1109;48.020;11.478;2022-07-06T13:12:41;3.17;;;2.40;;
2205;SDS011;1109;48.020;11.478;2022-07-06T13:15:09;2.60;;;2.03;;
2205;SDS011;1109;48.020;11.478;2022-07-06T13:17:36;2.53;;;2.30;;
2205;SDS011;1109;48.020;11.478;2022-07-06T13:20:04;3.30;;;2.10;;
2205;SDS011;1109;48.020;11.478;2022-07-06T13:22:32;5.80;;;2.47;;
2205;SDS011;1109;48.020;11.478;2022-07-06T13:24:59;2.50;;;2.23;;
2205;SDS011;1109;48.020;11.478;2022-07-06T13:27:27;6.43;;;2.10;;
2205;SDS011;1109;48.020;11.478;2022-07-06T13:29:54;3.57;;;2.63;;
2205;SDS011;1109;48.020;11.478;2022-07-06T13:32:21;2.23;;;2.13;;
2205;SDS011;1109;48.020;11.478;2022-07-06T13:34:48;2.33;;;2.23;;
2205;SDS011;1109;48.020;11.478;2022-07-06T13:37:17;4.30;;;2.30;;
2205;SDS011;1109;48.020;11.478;2022-07-06T13:39:46;2.47;;;2.27;;
2205;SDS011;1109;48.020;11.478;2022-07-06T13:42:13;2.47;;;2.23;;
2205;SDS011;1109;48.020;11.478;2022-07-06T13:44:40;2.70;;;2.20;;
2205;SDS011;1109;48.020;11.478;2022-07-06T13:47:07;1.90;;;1.80;;
2205;SDS011;1109;48.020;11.478;2022-07-06T13:49:34;6.10;;;2.03;;
2205;SDS011;1109;48.020;11.478;2022-07-06T13:52:01;1.80;;;1.70;;
2205;SDS011;1109;48.020;11.478;2022-07-06T13:54:30;5.23;;;2.47;;
2205;SDS011;1109;48.020;11.478;2022-07-06T13:57:01;2.70;;;2.10;;
2205;SDS011;1109;48.020;11.478;2022-07-06T13:59:29;3.70;;;2.27;;
2205;SDS011;1109;48.020;11.478;2022-07-06T14:01:56;3.90;;;2.23;;
2205;SDS011;1109;48.020;11.478;2022-07-06T14:04:23;2.30;;;2.10;;
2205;SDS011;1109;48.020;11.478;2022-07-06T14:06:50;3.10;;;2.10;;
2205;SDS011;1109;48.020;11.478;2022-07-06T14:09:17;2.33;;;2.23;;
2205;SDS011;1109;48.020;11.478;2022-07-06T14:11:44;3.03;;;2.70;;
2205;SDS011;1109;48.020;11.478;2022-07-06T14:14:11;3.57;;;2.13;;
2205;SDS011;1109;48.020;11.478;2022-07-06T14:16:39;2.40;;;2.20;;
2205;SDS011;1109;48.020;11.478;2022-07-06T14:19:07;3.43;;;1.93;;
2205;SDS011;1109;48.020;11.478;2022-07-06T14:21:34;2.37;;;2.17;;
2205;SDS011;1109;48.020;11.478;2022-07-06T14:24:01;2.37;;;2.00;;
2205;SDS011;1109;48.020;11.478;2022-07-06T14:26:30;2.20;;;2.10;;
2205;SDS011;1109;48.020;11.478;2022-07-06T14:28:58;2.90;;;1.87;;
2205;SDS011;1109;48.020;11.478;2022-07-06T14:31:25;2.93;;;2.23;;
2205;SDS011;1109;48.020;11.478;2022-07-06T14:33:52;6.57;;;2.23;;
2205;SDS011;1109;48.020;11.478;2022-07-06T14:36:23;3.07;;;2.03;;
2205;SDS011;1109;48.020;11.478;2022-07-06T14:38:50;2.63;;;2.10;;
2205;SDS011;1109;48.020;11.478;2022-07-06T14:41:18;6.03;;;2.50;;
2205;SDS011;1109;48.020;11.478;2022-07-06T14:43:45;2.37;;;2.07;;
2205;SDS011;1109;48.020;11.478;2022-07-06T14:46:13;1.90;;;1.80;;
2205;SDS011;1109;48.020;11.478;2022-07-06T14:48:40;4.50;;;1.87;;
2205;SDS011;1109;48.020;11.478;2022-07-06T14:51:07;3.30;;;2.10;;
2205;SDS011;1109;48.020;11.478;2022-07-06T14:53:36;2.10;;;2.00;;
2205;SDS011;1109;48.020;11.478;2022-07-06T14:56:03;2.43;;;2.20;;
2205;SDS011;1109;48.020;11.478;2022-07-06T14:58:30;2.83;;;2.40;;
2205;SDS011;1109;48.020;11.478;2022-07-06T15:00:57;2.60;;;1.70;;
2205;SDS011;1109;48.020;11.478;2022-07-06T15:03:25;2.27;;;1.53;;
2205;SDS011;1109;48.020;11.478;2022-07-06T15:05:54;1.97;;;1.80;;
2205;SDS011;1109;48.020;11.478;2022-07-06T15:08:20;2.13;;;1.77;;
2205;SDS011;1109;48.020;11.478;2022-07-06T15:10:48;3.50;;;2.43;;
2205;SDS011;1109;48.020;11.478;2022-07-06T15:13:15;2.00;;;1.90;;
2205;SDS011;1109;48.020;11.478;2022-07-06T15:15:42;2.00;;;1.90;;
2205;SDS011;1109;48.020;11.478;2022-07-06T15:18:25;1.80;;;1.70;;
2205;SDS011;1109;48.020;11.478;2022-07-06T15:20:53;3.27;;;2.90;;
2205;SDS011;1109;48.020;11.478;2022-07-06T15:23:20;2.43;;;2.27;;
2205;SDS011;1109;48.020;11.478;2022-07-06T15:25:47;3.67;;;2.20;;
2205;SDS011;1109;48.020;11.478;2022-07-06T15:28:21;3.50;;;3.20;;
2205;SDS011;1109;48.020;11.478;2022-07-06T15:30:51;6.70;;;2.47;;
2205;SDS011;1109;48.020;11.478;2022-07-06T15:33:18;2.33;;;2.20;;
2205;SDS011;1109;48.020;11.478;2022-07-06T15:35:45;3.53;;;1.97;;